sensor_id;sensor_type;location;lat;lon;timestamp;temperature;humidity
47540;DHT22;33280;52.152;21.052;2023-08-06T08:24:44;27.90;99.90
47540;DHT22;33280;52.152;21.052;2023-08-06T08:37:13;30.20;99.90
47540;DHT22;33280;52.152;21.052;2023-08-06T08:40:33;30.80;99.90
47540;DHT22;33280;52.152;21.052;2023-08-06T08:46:36;30.70;99.90
47540;DHT22;33280;52.152;21.052;2023-08-06T08:49:43;30.80;99.90
47540;DHT22;33280;52.152;21.052;2023-08-06T08:58:35;31.10;99.90
47540;DHT22;33280;52.152;21.052;2023-08-06T09:01:14;30.80;99.90
47540;DHT22;33280;52.152;21.052;2023-08-06T09:03:51;30.80;99.90
47540;DHT22;33280;52.152;21.052;2023-08-06T09:14:35;30.50;99.90
47540;DHT22;33280;52.152;21.052;2023-08-06T09:17:21;30.70;99.90
47540;DHT22;33280;52.152;21.052;2023-08-06T09:20:14;30.70;99.90
47540;DHT22;33280;52.152;21.052;2023-08-06T09:22:44;31.10;99.90
47540;DHT22;33280;52.152;21.052;2023-08-06T09:25:58;31.30;99.90
47540;DHT22;33280;52.152;21.052;2023-08-06T09:28:44;31.40;99.90
47540;DHT22;33280;52.152;21.052;2023-08-06T09:31:47;31.10;99.90
47540;DHT22;33280;52.152;21.052;2023-08-06T09:35:27;30.90;99.90
47540;DHT22;33280;52.152;21.052;2023-08-06T09:38:06;30.90;99.90
47540;DHT22;33280;52.152;21.052;2023-08-06T09:40:37;30.90;99.90
47540;DHT22;33280;52.152;21.052;2023-08-06T09:43:25;31.20;99.90
47540;DHT22;33280;52.152;21.052;2023-08-06T09:45:57;31.50;99.90
47540;DHT22;33280;52.152;21.052;2023-08-06T09:52:19;31.70;99.90
47540;DHT22;33280;52.152;21.052;2023-08-06T09:59:27;31.90;99.90
47540;DHT22;33280;52.152;21.052;2023-08-06T10:19:34;33.30;99.90
47540;DHT22;33280;52.152;21.052;2023-08-06T10:22:17;33.10;99.90
47540;DHT22;33280;52.152;21.052;2023-08-06T10:24:58;33.60;99.90
47540;DHT22;33280;52.152;21.052;2023-08-06T10:27:36;33.70;99.90
47540;DHT22;33280;52.152;21.052;2023-08-06T10:30:32;34.10;99.90
47540;DHT22;33280;52.152;21.052;2023-08-06T10:33:03;34.60;99.90
47540;DHT22;33280;52.152;21.052;2023-08-06T10:35:50;34.00;99.90
47540;DHT22;33280;52.152;21.052;2023-08-06T10:38:20;33.20;99.90
47540;DHT22;33280;52.152;21.052;2023-08-06T10:43:36;32.70;99.90
47540;DHT22;33280;52.152;21.052;2023-08-06T10:46:11;32.70;99.90
47540;DHT22;33280;52.152;21.052;2023-08-06T10:48:44;32.30;99.90
47540;DHT22;33280;52.152;21.052;2023-08-06T10:51:13;32.20;99.90
47540;DHT22;33280;52.152;21.052;2023-08-06T10:53:45;32.00;99.90
47540;DHT22;33280;52.152;21.052;2023-08-06T10:56:13;32.00;99.90
47540;DHT22;33280;52.152;21.052;2023-08-06T10:58:44;32.00;99.90
47540;DHT22;33280;52.152;21.052;2023-08-06T11:01:12;31.80;99.90
47540;DHT22;33280;52.152;21.052;2023-08-06T11:03:39;31.60;99.90
47540;DHT22;33280;52.152;21.052;2023-08-06T11:06:08;31.40;99.90
47540;DHT22;33280;52.152;21.052;2023-08-06T11:08:37;31.40;99.90
47540;DHT22;33280;52.152;21.052;2023-08-06T11:11:10;31.60;99.90
47540;DHT22;33280;52.152;21.052;2023-08-06T11:13:41;32.00;99.90
47540;DHT22;33280;52.152;21.052;2023-08-06T11:16:09;32.10;99.90
47540;DHT22;33280;52.152;21.052;2023-08-06T11:18:36;32.20;99.90
47540;DHT22;33280;52.152;21.052;2023-08-06T11:21:03;31.90;99.90
47540;DHT22;33280;52.152;21.052;2023-08-06T11:23:31;31.70;99.90
47540;DHT22;33280;52.152;21.052;2023-08-06T11:25:58;31.40;99.90
47540;DHT22;33280;52.152;21.052;2023-08-06T11:28:25;31.20;99.90
47540;DHT22;33280;52.152;21.052;2023-08-06T11:30:52;31.80;99.90
47540;DHT22;33280;52.152;21.052;2023-08-06T11:33:25;32.10;99.90
47540;DHT22;33280;52.152;21.052;2023-08-06T11:35:55;32.30;99.90
47540;DHT22;33280;52.152;21.052;2023-08-06T11:38:25;32.40;99.90
47540;DHT22;33280;52.152;21.052;2023-08-06T11:40:53;32.90;99.90
47540;DHT22;33280;52.152;21.052;2023-08-06T11:43:20;33.60;99.90
47540;DHT22;33280;52.152;21.052;2023-08-06T11:45:50;33.90;99.90
47540;DHT22;33280;52.152;21.052;2023-08-06T11:48:21;34.30;99.90
47540;DHT22;33280;52.152;21.052;2023-08-06T11:50:48;34.80;99.90
47540;DHT22;33280;52.152;21.052;2023-08-06T11:53:16;34.80;99.90
47540;DHT22;33280;52.152;21.052;2023-08-06T11:55:43;35.10;99.90
47540;DHT22;33280;52.152;21.052;2023-08-06T11:58:11;35.50;99.90
47540;DHT22;33280;52.152;21.052;2023-08-06T12:00:42;35.30;99.90
47540;DHT22;33280;52.152;21.052;2023-08-06T12:03:09;35.70;99.90
47540;DHT22;33280;52.152;21.052;2023-08-06T12:05:37;36.20;99.10
47540;DHT22;33280;52.152;21.052;2023-08-06T12:08:06;35.90;98.10
47540;DHT22;33280;52.152;21.052;2023-08-06T12:10:35;35.20;98.00
47540;DHT22;33280;52.152;21.052;2023-08-06T12:13:02;34.30;99.10
47540;DHT22;33280;52.152;21.052;2023-08-06T12:15:30;34.00;99.90
47540;DHT22;33280;52.152;21.052;2023-08-06T12:17:59;33.70;99.90
47540;DHT22;33280;52.152;21.052;2023-08-06T12:20:27;33.30;99.90
47540;DHT22;33280;52.152;21.052;2023-08-06T12:22:55;32.60;99.90
47540;DHT22;33280;52.152;21.052;2023-08-06T12:25:22;32.40;99.90
47540;DHT22;33280;52.152;21.052;2023-08-06T12:27:50;31.90;99.90
47540;DHT22;33280;52.152;21.052;2023-08-06T12:30:17;31.60;99.90
47540;DHT22;33280;52.152;21.052;2023-08-06T12:32:45;31.20;99.90
47540;DHT22;33280;52.152;21.052;2023-08-06T12:35:12;30.90;99.90
47540;DHT22;33280;52.152;21.052;2023-08-06T12:37:40;30.50;99.90
47540;DHT22;33280;52.152;21.052;2023-08-06T12:40:10;30.30;99.90
47540;DHT22;33280;52.152;21.052;2023-08-06T12:42:57;30.00;99.90
47540;DHT22;33280;52.152;21.052;2023-08-06T12:45:26;29.80;99.90
47540;DHT22;33280;52.152;21.052;2023-08-06T12:47:53;29.70;99.90
47540;DHT22;33280;52.152;21.052;2023-08-06T12:50:20;29.60;99.90
47540;DHT22;33280;52.152;21.052;2023-08-06T12:52:47;29.40;99.90
47540;DHT22;33280;52.152;21.052;2023-08-06T12:55:14;29.30;99.90
47540;DHT22;33280;52.152;21.052;2023-08-06T14:43:47;32.00;99.90
47540;DHT22;33280;52.152;21.052;2023-08-06T14:46:26;31.80;99.90
47540;DHT22;33280;52.152;21.052;2023-08-06T15:50:15;26.90;99.90
47540;DHT22;33280;52.152;21.052;2023-08-06T16:04:31;27.50;99.90
47540;DHT22;33280;52.152;21.052;2023-08-06T16:07:33;27.10;99.90
47540;DHT22;33280;52.152;21.052;2023-08-06T16:46:24;26.10;99.90
47540;DHT22;33280;52.152;21.052;2023-08-06T16:48:52;25.90;99.90
47540;DHT22;33280;52.152;21.052;2023-08-06T16:51:19;25.90;99.90
47540;DHT22;33280;52.152;21.052;2023-08-06T16:53:46;25.90;99.90
47540;DHT22;33280;52.152;21.052;2023-08-06T16:56:13;25.70;99.90
47540;DHT22;33280;52.152;21.052;2023-08-06T17:01:34;25.40;99.90
47540;DHT22;33280;52.152;21.052;2023-08-06T17:04:29;25.40;99.90
47540;DHT22;33280;52.152;21.052;2023-08-06T17:06:59;25.00;99.90
47540;DHT22;33280;52.152;21.052;2023-08-06T17:36:36;23.30;99.90
47540;DHT22;33280;52.152;21.052;2023-08-06T17:39:08;23.00;99.90
47540;DHT22;33280;52.152;21.052;2023-08-06T18:19:02;20.60;99.90
47540;DHT22;33280;52.152;21.052;2023-08-06T18:21:29;20.50;99.90
47540;DHT22;33280;52.152;21.052;2023-08-06T18:23:56;20.40;99.90
47540;DHT22;33280;52.152;21.052;2023-08-06T18:26:23;20.40;99.90
47540;DHT22;33280;52.152;21.052;2023-08-06T18:28:51;20.10;99.90
47540;DHT22;33280;52.152;21.052;2023-08-06T18:31:18;20.00;99.90
47540;DHT22;33280;52.152;21.052;2023-08-06T18:33:46;19.80;99.90
47540;DHT22;33280;52.152;21.052;2023-08-06T18:36:16;19.80;99.90
47540;DHT22;33280;52.152;21.052;2023-08-06T18:38:46;19.70;99.90
47540;DHT22;33280;52.152;21.052;2023-08-06T18:41:16;19.70;99.90
47540;DHT22;33280;52.152;21.052;2023-08-06T18:43:43;19.50;99.90
47540;DHT22;33280;52.152;21.052;2023-08-06T18:46:11;19.50;99.90
47540;DHT22;33280;52.152;21.052;2023-08-06T18:48:38;19.30;99.90
47540;DHT22;33280;52.152;21.052;2023-08-06T18:51:05;19.00;99.90
47540;DHT22;33280;52.152;21.052;2023-08-06T18:53:33;19.00;99.90
47540;DHT22;33280;52.152;21.052;2023-08-06T18:56:00;18.90;99.90
47540;DHT22;33280;52.152;21.052;2023-08-06T20:18:12;17.80;99.90
47540;DHT22;33280;52.152;21.052;2023-08-06T21:08:05;17.60;99.90
47540;DHT22;33280;52.152;21.052;2023-08-06T21:10:47;17.60;99.90
47540;DHT22;33280;52.152;21.052;2023-08-06T21:16:41;17.50;99.90
47540;DHT22;33280;52.152;21.052;2023-08-06T21:19:08;17.40;99.90
47540;DHT22;33280;52.152;21.052;2023-08-06T21:21:36;17.40;99.90
47540;DHT22;33280;52.152;21.052;2023-08-06T21:24:04;17.40;99.90
47540;DHT22;33280;52.152;21.052;2023-08-06T21:26:32;17.40;99.90
47540;DHT22;33280;52.152;21.052;2023-08-06T21:28:59;17.40;99.90
47540;DHT22;33280;52.152;21.052;2023-08-06T21:31:27;17.50;99.90
47540;DHT22;33280;52.152;21.052;2023-08-06T21:33:54;17.60;99.90
47540;DHT22;33280;52.152;21.052;2023-08-06T21:36:21;17.60;99.90
47540;DHT22;33280;52.152;21.052;2023-08-06T21:38:50;17.50;99.90
47540;DHT22;33280;52.152;21.052;2023-08-06T21:41:18;17.50;99.90
47540;DHT22;33280;52.152;21.052;2023-08-06T21:43:46;17.40;99.90
47540;DHT22;33280;52.152;21.052;2023-08-06T21:46:15;17.30;99.90
47540;DHT22;33280;52.152;21.052;2023-08-06T21:48:44;17.20;99.90
47540;DHT22;33280;52.152;21.052;2023-08-06T21:51:17;17.30;99.90
47540;DHT22;33280;52.152;21.052;2023-08-06T21:53:44;17.10;99.90
47540;DHT22;33280;52.152;21.052;2023-08-06T21:56:14;17.10;99.90
47540;DHT22;33280;52.152;21.052;2023-08-06T21:58:46;17.10;99.90
47540;DHT22;33280;52.152;21.052;2023-08-06T22:01:14;17.10;99.90
47540;DHT22;33280;52.152;21.052;2023-08-06T22:03:42;17.00;99.90
47540;DHT22;33280;52.152;21.052;2023-08-06T22:06:13;17.00;99.90
47540;DHT22;33280;52.152;21.052;2023-08-06T22:08:40;17.00;99.90
47540;DHT22;33280;52.152;21.052;2023-08-06T22:11:08;16.90;99.90
47540;DHT22;33280;52.152;21.052;2023-08-06T22:13:36;16.90;99.90
47540;DHT22;33280;52.152;21.052;2023-08-06T22:16:06;16.90;99.90
47540;DHT22;33280;52.152;21.052;2023-08-06T22:18:35;16.90;99.90
47540;DHT22;33280;52.152;21.052;2023-08-06T22:21:02;16.90;99.90
47540;DHT22;33280;52.152;21.052;2023-08-06T22:23:29;16.80;99.90
47540;DHT22;33280;52.152;21.052;2023-08-06T22:25:57;16.70;99.90
47540;DHT22;33280;52.152;21.052;2023-08-06T22:28:24;16.60;99.90
47540;DHT22;33280;52.152;21.052;2023-08-06T22:30:52;16.50;99.90
47540;DHT22;33280;52.152;21.052;2023-08-06T22:33:19;16.30;99.90
47540;DHT22;33280;52.152;21.052;2023-08-06T22:35:48;16.20;99.90
47540;DHT22;33280;52.152;21.052;2023-08-06T22:38:18;16.20;99.90
47540;DHT22;33280;52.152;21.052;2023-08-06T22:40:45;16.20;99.90
47540;DHT22;33280;52.152;21.052;2023-08-06T22:43:13;16.00;99.90
47540;DHT22;33280;52.152;21.052;2023-08-06T22:45:40;15.90;99.90
47540;DHT22;33280;52.152;21.052;2023-08-06T22:48:13;15.80;99.90
47540;DHT22;33280;52.152;21.052;2023-08-06T22:50:45;15.70;99.90
47540;DHT22;33280;52.152;21.052;2023-08-06T22:53:15;15.70;99.90
